Tiempo atmosférico en la estación meteorológica de El Maíllo, Salamanca (1027 m.)



Fecha
DESCASC
Temp. máxima en grados centígrados (hora)
DESCASC
Temp. mínima en grados centígrados (hora)
DESCASC
Temp. media en grados centígrados
DESCASC
Racha de viento máxima en m/sg (hora)
DESCASC
Velocidad máxima media en intervalos de 10 minutos(hora)
DESCASC
Precipitaciones diarias en mm
DESCASC
Precipitaciones de 00:00 a 06:00 en mm
DESCASC
Precipitaciones de 06:00 a 12:00 en mm
DESCASC
Precipitaciones de 12:00 a 18:00 en mm
DESCASC
Precipitaciones de 18:00 a 24:00 en mm
DESCASC
11-12-2019 9.3 (06:50) 1.9 (19:20) 5.6 11.67 (16:00) 8.06 (16:00) 1.2 0 1.2 0 0
08-12-2019 10.6 (11:20) 3.2 (00:00) 6.9 6.39 (00:10) 5.28 (00:10) 3.6 0 0 3 0.6
07-12-2019 11.8 (15:50) 2.3 (00:00) 7.1 6.94 (23:50) 5.83 (23:50) 0.2 0 0.2 0 0
06-12-2019 10.1 (13:10) 1 (00:00) 5.6 4.72 (23:59) 4.17 (23:59) 0 0 0 0 0
05-12-2019 7.5 (15:40) 2.3 (00:00) 4.9 11.11 (06:30) 6.67 (06:00) 0 0 0 0 0
04-12-2019 6.4 (13:00) -0.9 (08:10) 2.8 8.89 (21:30) 5.83 (21:10) 0 0 0 0 0
03-12-2019 5.1 (15:40) -1.6 (-00:0) 1.7 8.33 (10:20) 6.11 (10:20) 0 0 0 0 0
02-12-2019 6.7 (13:10) 1.6 (00:00) 4.1 16.39 (12:40) 11.39 (12:40) 0 0 0 0 0
01-12-2019 9.2 (14:30) 4.4 (00:00) 6.8 12.22 (04:10) 7.5 (04:10) 0 0 0 0 0
30-11-2019 11.9 (12:10) 4.2 (00:00) 8 13.61 (14:50) 8.89 (14:50) 0 0 0 0 0
29-11-2019 12.8 (15:30) 10.3 (00:00) 11.6 12.22 (01:20) 8.61 (01:20) 4.6 2 2.6 0 0
28-11-2019 11.1 (14:50) 7.2 (01:50) 9.2 15.83 (17:30) 10.28 (21:00) 0 0 0 0 0
27-11-2019 9.9 (15:50) 5.4 (00:00) 7.6 11.67 (12:30) 7.78 (14:30) 0 0 0 0 0
26-11-2019 12.9 (13:10) 7.4 (00:00) 10.1 20 (14:20) 11.67 (14:20) 5 0 1.2 2.4 1.4
25-11-2019 12.9 (14:30) 6.5 (23:30) 9.7 16.11 (03:30) 10.83 (00:10) 0.2 0.2 0 0 0
24-11-2019 10.4 (23:59) 1.7 (00:00) 6 16.11 (23:59) 11.11 (23:59) 0.2 0 0 0 0.2
23-11-2019 7.1 (15:10) 2.2 (00:00) 4.6 14.72 (03:00) 10.28 (03:00) 0 0 0 0 0
22-11-2019 11.9 (14:40) 3.8 (00:00) 7.8 25.28 (09:00) 15.28 (08:50) 16.6 8 4.2 0 4.4
21-11-2019 8.8 (14:20) 4 (00:00) 6.4 9.72 (07:20) 6.39 (07:10) 4.2 0 0 3.4 0.8
20-11-2019 6.2 (02:10) 2.7 (09:10) 4.4 16.11 (13:10) 10.83 (13:10) 0 0 0 0 0
19-11-2019 8.2 (13:50) -0.1 (00:00) 4 6.11 (15:00) 4.17 (01:10) 0 0 0 0 0
18-11-2019 7.9 (15:40) 0.4 (00:00) 4.2 6.39 (12:10) 4.17 (23:50) 0 0 0 0 0
17-11-2019 8.2 (13:00) 1.2 (00:00) 4.7 10.83 (15:30) 7.22 (13:30) 0 0 0 0 0
16-11-2019 5.3 (15:40) -0.7 (-00:0) 2.3 7.22 (15:50) 4.72 (13:20) 0 0 0 0 0
15-11-2019 3.7 (15:30) -0.4 (00:00) 1.7 10 (13:40) 6.11 (15:00) 0 0 0 0 0
14-11-2019 6 (01:10) 0.5 (00:00) 3.3 16.11 (05:20) 10.28 (14:40) 0 0 0 0 0
13-11-2019 12.6 (14:50) 5.5 (00:00) 9.1 13.89 (04:30) 8.06 (02:30) 0 0 0 0 0
12-11-2019 8.7 (15:00) 0.2 (00:00) 4.4 11.67 (23:30) 7.22 (22:40) 0 0 0 0 0

Gráficas

Temp. máximas Temp. mínimas Temp. medias Precipitaciones Rachas de viento máximas Velocidades máximas media en intervalos de 10 minutos

Datos horarios

Fecha y hora oficial Temperatura (ºC) Velocidad del viento (km/h) Dirección del viento Racha (km/h) Dirección de racha Precipitación (mm) Presión (hPa) Tendencia (hPa) Humedad (%)
2019-12-11 23:00:00 2.5 10 Sudoeste 20 Sudoeste 0 -- -- 93
2019-12-11 22:00:00 3 13 Sudoeste 23 Sudoeste 0 -- -- 89
2019-12-11 21:00:00 2.7 9 Sudoeste 17 Sudoeste 0 -- -- 88
2019-12-11 20:00:00 2 10 Sudoeste 15 Sudoeste 0 -- -- 86
2019-12-11 19:00:00 2.3 3 Sudoeste 5 Sur 0 -- -- 82
2019-12-11 18:00:00 3.9 2 Sudoeste 22 Noroeste 0 -- -- 74
2019-12-11 17:00:00 5.5 10 Noroeste 38 Noroeste 0 -- -- 70
2019-12-11 16:00:00 5.6 29 Noroeste 42 Noroeste 0 -- -- 66
2019-12-11 15:00:00 6.1 22 Noroeste 33 Noroeste 0 -- -- 69
2019-12-11 14:00:00 5.8 21 Noroeste 36 Noroeste 0 -- -- 71
2019-12-11 13:00:00 5.4 24 Oeste 37 Oeste 0 -- -- 78
2019-12-11 12:00:00 4.5 22 Noroeste 36 Oeste 0 -- -- 92
2019-12-11 11:00:00 3.8 17 Noroeste 27 Oeste 0 -- -- 97
2019-12-11 10:00:00 4.2 13 Oeste 37 Oeste 0.4 -- -- 98
2019-12-11 09:00:00 5.8 22 Oeste 39 Oeste 0.6 -- -- 96
2019-12-11 08:00:00 7.5 19 Sudoeste 32 Sudoeste 0.2 -- -- 88
2019-12-11 07:00:00 9.2 17 Sudoeste 28 Sudoeste 0 -- -- 57
2019-12-11 06:00:00 8.9 18 Sudoeste 27 Sudoeste 0 -- -- 69
2019-12-11 05:00:00 8.6 17 Sudoeste 25 Sudoeste 0 -- -- 62
2019-12-11 04:00:00 8.3 14 Sudoeste 22 Sudoeste 0 -- -- 50
2019-12-11 03:00:00 8.5 14 Sudoeste 21 Sudoeste 0 -- -- 31
2019-12-11 02:00:00 8.1 12 Sudoeste 20 Sudoeste 0 -- -- 27
2019-12-11 01:00:00 7.6 11 Sudoeste 18 Sudoeste 0 -- -- 29
2019-12-11 00:00:00 3.6 11 Sudoeste 16 Sudoeste 0 -- -- 52
2019-12-10 23:00:00 3.5 10 Sur 15 Sur 0 -- -- 59
2019-12-10 22:00:00 4 9 Sur 16 Sur 0 -- -- 65
2019-12-10 21:00:00 4.3 12 Sur 16 Sur 0 -- -- 61
2019-12-10 20:00:00 5.6 8 Sur 10 Sudoeste 0 -- -- 62
2019-12-10 19:00:00 6.9 6 Sudoeste 14 Sur 0 -- -- 59
2019-12-10 18:00:00 8.3 13 Sur 15 Sur 0 -- -- 64
2019-12-10 17:00:00 10.1 9 Sur 12 Sudeste 0 -- -- 57
2019-12-10 16:00:00 10.7 7 Sur 9 Sur 0 -- -- 61
2019-12-10 15:00:00 11.8 0 Calma 8 Oeste 0 -- -- 38
2019-12-10 14:00:00 11.6 6 Noroeste 12 Noroeste 0 -- -- 54
2019-12-10 13:00:00 9.6 0 Calma 14 Oeste 0 -- -- 59
2019-12-10 12:00:00 10.6 0 Calma 4 Oeste 0 -- -- 48
2019-12-10 11:00:00 9.9 3 Sudoeste 10 Sur 0 -- -- 46
2019-12-10 10:00:00 5 5 Sur 14 Sur 0 -- -- 63
2019-12-10 09:00:00 3.8 6 Sudoeste 15 Sur 0 -- -- 58
2019-12-10 08:00:00 3.3 10 Sudeste 15 Este 0 -- -- 62
2019-12-10 07:00:00 3.3 8 Este 18 Este 0 -- -- 61
2019-12-10 06:00:00 6.7 14 Este 23 Este 0 -- -- 42
2019-12-10 05:00:00 2.4 6 Sudeste 11 Sudeste 0 -- -- 65
2019-12-10 04:00:00 3 3 Sudoeste 17 Este 0 -- -- 64
2019-12-10 03:00:00 2.5 5 Sudeste 16 Este 0 -- -- 67
2019-12-10 02:00:00 4.7 8 Sudeste 18 Este 0 -- -- 61
2019-12-10 01:00:00 3.8 11 Este 22 Este 0 -- -- 72
2019-12-10 00:00:00 1.8 6 Este 10 Sudeste 0 -- -- 79
2019-12-09 23:00:00 2.1 10 Sur 20 Sur 0 -- -- 78
2019-12-09 22:00:00 2.8 14 Sur 19 Sur 0 -- -- 77
2019-12-09 21:00:00 3.5 13 Sur 17 Sudeste 0 -- -- 76
2019-12-09 20:00:00 5.2 5 Sur 13 Sur 0 -- -- 64
2019-12-09 19:00:00 6 11 Sur 14 Sur 0 -- -- 67
2019-12-09 18:00:00 7.5 3 Sur 11 Sur 0 -- -- 66
2019-12-09 17:00:00 9.3 0 Calma 10 Oeste 0 -- -- 56
2019-12-09 16:00:00 9.8 6 Oeste 16 Oeste 0 -- -- 62
2019-12-09 15:00:00 11.3 12 Noroeste 19 Noroeste 0 -- -- 49
2019-12-09 14:00:00 11.1 11 Oeste 15 Oeste 0 -- -- 50
2019-12-09 13:00:00 10.8 3 Noroeste 10 Noroeste 0 -- -- 46
2019-12-09 12:00:00 9.1 2 Noroeste 6 Sudeste 0 -- -- 48
2019-12-09 11:00:00 8.8 3 Sudeste 16 Sur 0 -- -- 50
2019-12-09 10:00:00 4.2 4 Sudeste 15 Sur 0 -- -- 74
2019-12-09 09:00:00 1.7 12 Sur 24 Sur 0 -- -- 77
2019-12-09 08:00:00 1.4 14 Sur 22 Sur 0 -- -- 80
2019-12-09 07:00:00 1.3 19 Sur 24 Sur 0 -- -- 83
2019-12-09 06:00:00 1.3 15 Sur 20 Sur 0 -- -- 88
2019-12-09 05:00:00 1.9 10 Sudeste 19 Sur 0 -- -- 93
2019-12-09 04:00:00 3.1 8 Sur 13 Sur 0 -- -- 97
2019-12-09 03:00:00 6.1 0 Calma 12 Noroeste 0 -- -- 99
2019-12-09 02:00:00 7 3 Norte 11 Oeste 0 -- -- 100
2019-12-09 01:00:00 7.5 8 Oeste 15 Oeste 0 -- -- 100
2019-12-09 00:00:00 8.1 6 Oeste 11 Oeste 0 -- -- 100
2019-12-08 23:00:00 8.7 5 Noroeste 12 Oeste 0 -- -- 100
2019-12-08 22:00:00 9.1 8 Oeste 21 Noroeste 0 -- -- 100
2019-12-08 21:00:00 9.5 7 Oeste 19 Oeste 0 -- -- 100
2019-12-08 20:00:00 9.6 8 Oeste 16 Oeste 0.4 -- -- 100
2019-12-08 19:00:00 9.6 10 Sudoeste 18 Sudoeste 0.2 -- -- 100
2019-12-08 18:00:00 9.7 9 Sudoeste 14 Sudoeste 0.2 -- -- 99
2019-12-08 17:00:00 9.7 9 Oeste 18 Sudoeste 0.4 -- -- 99
2019-12-08 16:00:00 9.8 10 Sudoeste 17 Sudoeste 0.6 -- -- 99
2019-12-08 15:00:00 9.6 9 Sudoeste 21 Oeste 1.6 -- -- 98
2019-12-08 14:00:00 10.1 13 Oeste 21 Oeste 0.2 -- -- 96
2019-12-08 13:00:00 10.6 12 Sudoeste 21 Sudoeste 0 -- -- 94
2019-12-08 12:00:00 10.2 14 Oeste 17 Oeste 0 -- -- 92
2019-12-08 11:00:00 10.2 8 Sudoeste 15 Oeste 0 -- -- 93
2019-12-08 10:00:00 8.6 8 Sur 14 Sudoeste 0 -- -- 94
2019-12-08 09:00:00 8.3 9 Sudoeste 17 Sudoeste 0 -- -- 88
2019-12-08 08:00:00 7.9 6 Sudoeste 11 Sudoeste 0 -- -- 91
2019-12-08 07:00:00 6 8 Sudoeste 12 Sur 0 -- -- 95
2019-12-08 06:00:00 4.4 10 Sur 19 Sur 0 -- -- 93
2019-12-08 05:00:00 4.2 17 Sur 19 Sur 0 -- -- 89
2019-12-08 04:00:00 4.5 9 Sur 19 Sudeste 0 -- -- 90
2019-12-08 03:00:00 3.9 5 Sur 18 Sur 0 -- -- 87
2019-12-08 02:00:00 3.4 14 Sur 18 Sur 0 -- -- 86
2019-12-08 01:00:00 3.8 10 Sur 23 Sur 0 -- -- 78
2019-12-08 00:00:00 4 19 Sur 25 Sur 0 -- -- 83
2019-12-07 23:00:00 3.7 13 Sur 16 Sur 0 -- -- 87
2019-12-07 22:00:00 4.2 14 Sur 19 Sur 0 -- -- 84
2019-12-07 21:00:00 4.7 13 Sur 17 Sur 0 -- -- 85
2019-12-07 20:00:00 4.9 9 Sur 22 Sur 0 -- -- 83
2019-12-07 19:00:00 4.8 15 Sur 18 Sur 0 -- -- 84
2019-12-07 18:00:00 6.9 14 Sur 15 Sur 0 -- -- 78
2019-12-07 17:00:00 11.4 6 Oeste 15 Noroeste 0 -- -- 63
2019-12-07 16:00:00 11.7 10 Oeste 17 Oeste 0 -- -- 58
2019-12-07 15:00:00 11.2 9 Oeste 17 Oeste 0 -- -- 63
2019-12-07 14:00:00 11.2 12 Oeste 20 Oeste 0 -- -- 67
2019-12-07 13:00:00 11.1 8 Oeste 14 Noroeste 0 -- -- 71
2019-12-07 12:00:00 10.9 6 Noroeste 10 Noroeste 0.2 -- -- 68
2019-12-07 11:00:00 10.2 0 Calma 6 Sur 0 -- -- 66
2019-12-07 10:00:00 6 5 Sur 16 Sur 0 -- -- 80
2019-12-07 09:00:00 3.6 11 Sur 19 Sur 0 -- -- 84
2019-12-07 08:00:00 3 12 Sur 21 Sur 0 -- -- 86
2019-12-07 07:00:00 3.5 17 Sur 21 Sur 0 -- -- 85
2019-12-07 06:00:00 2.9 13 Sur 15 Sudeste 0 -- -- 89
2019-12-07 05:00:00 2.6 12 Sudeste 14 Sudeste 0 -- -- 90
2019-12-07 04:00:00 2.8 9 Sudeste 15 Sudeste 0 -- -- 89
2019-12-07 03:00:00 3.3 11 Sur 17 Sur 0 -- -- 87
2019-12-07 02:00:00 3.3 11 Sur 18 Sur 0 -- -- 86
2019-12-07 01:00:00 3.3 16 Sur 19 Sur 0 -- -- 87
2019-12-07 00:00:00 2.4 15 Sur 17 Sudeste 0 -- -- 91
2019-12-06 23:00:00 2.7 4 Sur 12 Sudeste 0 -- -- 91
2019-12-06 22:00:00 2.1 6 Sudeste 14 Sur 0 -- -- 95
2019-12-06 21:00:00 2.4 6 Sur 14 Oeste 0 -- -- 93
2019-12-06 20:00:00 3.2 6 Sudeste 11 Sudeste 0 -- -- 93
2019-12-06 19:00:00 3.5 7 Sudeste 10 Sudeste 0 -- -- 92
2019-12-06 18:00:00 6.4 3 Sudeste 8 Noroeste 0 -- -- 83
2019-12-06 17:00:00 8.8 6 Noroeste 9 Noroeste 0 -- -- 76
2019-12-06 16:00:00 9.7 5 Norte 11 Norte 0 -- -- 74
2019-12-06 15:00:00 8.5 4 Norte 14 Noroeste 0 -- -- 79
2019-12-06 14:00:00 8.2 10 Oeste 14 Oeste 0 -- -- 81
2019-12-06 13:00:00 9.7 2 Norte 13 Noroeste 0 -- -- 75
2019-12-06 12:00:00 8.8 9 Noroeste 13 Noroeste 0 -- -- 79
2019-12-06 11:00:00 3.7 0 Calma 16 Noroeste 0 -- -- 94
2019-12-06 10:00:00 4.7 4 Sudeste 13 Sudeste 0 -- -- 95
2019-12-06 09:00:00 1.7 5 Sur 12 Sudeste 0 -- -- 96
2019-12-06 08:00:00 1.1 8 Sudeste 15 Sur 0 -- -- 96
2019-12-06 07:00:00 1.6 6 Sur 13 Sudeste 0 -- -- 95
2019-12-06 06:00:00 1.7 13 Sudeste 15 Sudeste 0 -- -- 97
2019-12-06 05:00:00 1.6 6 Sur 11 Sur 0 -- -- 96
2019-12-06 04:00:00 1.6 7 Sudeste 13 Este 0 -- -- 96
2019-12-06 03:00:00 1 5 Sudeste 11 Sur 0 -- -- 96
2019-12-06 02:00:00 1.7 8 Sudeste 10 Este 0 -- -- 95
2019-12-06 01:00:00 3.4 0 Calma 9 Nordeste 0 -- -- 91
2019-12-06 00:00:00 4.6 7 Nordeste 20 Este 0 -- -- 87
2019-12-05 23:00:00 5.3 12 Sudeste 32 Este 0 -- -- 88
2019-12-05 22:00:00 5.2 11 Este 30 Este 0 -- -- 88
2019-12-05 21:00:00 5.8 13 Este 28 Este 0 -- -- 87
2019-12-05 20:00:00 5.6 9 Este 21 Nordeste 0 -- -- 90
2019-12-05 19:00:00 5.7 16 Este 26 Este 0 -- -- 88
2019-12-05 18:00:00 6 18 Nordeste 30 Nordeste 0 -- -- 85
2019-12-05 17:00:00 6.3 15 Nordeste 27 Nordeste 0 -- -- 84
2019-12-05 16:00:00 7.4 16 Nordeste 28 Nordeste 0 -- -- 81
2019-12-05 15:00:00 6.8 15 Nordeste 27 Nordeste 0 -- -- 81
2019-12-05 14:00:00 6.7 15 Nordeste 31 Nordeste 0 -- -- 82
2019-12-05 13:00:00 5.8 16 Este 30 Nordeste 0 -- -- 87
2019-12-05 12:00:00 5 21 Nordeste 31 Nordeste 0 -- -- 87
2019-12-05 11:00:00 5.2 10 Este 34 Este 0 -- -- 89
2019-12-05 10:00:00 4.1 19 Nordeste 32 Este 0 -- -- 90
2019-12-05 09:00:00 4.2 15 Este 26 Este 0 -- -- 89
2019-12-05 08:00:00 4.3 20 Este 36 Nordeste 0 -- -- 88
2019-12-05 07:00:00 4.2 20 Este 40 Nordeste 0 -- -- 89
2019-12-05 06:00:00 4 24 Nordeste 39 Nordeste 0 -- -- 89
2019-12-05 05:00:00 3.4 21 Este 33 Este 0 -- -- 90
2019-12-05 04:00:00 2.7 21 Nordeste 32 Este 0 -- -- 87
2019-12-05 03:00:00 3 13 Nordeste 22 Nordeste 0 -- -- 89
2019-12-05 02:00:00 2.6 10 Este 14 Nordeste 0 -- -- 97
2019-12-05 01:00:00 2.5 6 Este 12 Este 0 -- -- 95
2019-12-05 00:00:00 3.1 10 Este 12 Este 0 -- -- 94
2019-12-04 23:00:00 4.6 7 Nordeste 27 Este 0 -- -- 90
2019-12-04 22:00:00 5.1 18 Este 32 Este 0 -- -- 89
2019-12-04 21:00:00 4.3 18 Este 31 Nordeste 0 -- -- 93
2019-12-04 20:00:00 3.9 19 Nordeste 26 Nordeste 0 -- -- 94
2019-12-04 19:00:00 3.9 15 Nordeste 22 Este 0 -- -- 93
2019-12-04 18:00:00 4 8 Este 19 Nordeste 0 -- -- 91
2019-12-04 17:00:00 4.2 15 Nordeste 26 Nordeste 0 -- -- 88
2019-12-04 16:00:00 4.8 14 Nordeste 23 Nordeste 0 -- -- 83
2019-12-04 15:00:00 4.5 11 Nordeste 19 Nordeste 0 -- -- 86
2019-12-04 14:00:00 5.3 12 Nordeste 21 Nordeste 0 -- -- 80
2019-12-04 13:00:00 6.4 12 Nordeste 23 Nordeste 0 -- -- 75
2019-12-04 12:00:00 5.8 14 Nordeste 23 Nordeste 0 -- -- 75
2019-12-04 11:00:00 3.4 6 Nordeste 12 Nordeste 0 -- -- 88
2019-12-04 10:00:00 2.6 3 Sudeste 9 Sudeste 0 -- -- 94
2019-12-04 09:00:00 -0.3 4 Sudeste 13 Sudeste 0 -- -- 96
2019-12-04 08:00:00 -0.8 4 Sur 9 Norte 0 -- -- 95
2019-12-04 07:00:00 1.2 5 Sur 18 Sur 0 -- -- 94
2019-12-04 06:00:00 1 8 Sur 12 Sudeste 0 -- -- 94
2019-12-04 05:00:00 2.2 5 Este 12 Sudeste 0 -- -- 92
2019-12-04 04:00:00 1.7 8 Sudeste 14 Sur 0 -- -- 93
2019-12-04 03:00:00 1.7 6 Sur 17 Sur 0 -- -- 94
2019-12-04 02:00:00 0.6 10 Sur 15 Sur 0 -- -- 95
2019-12-04 01:00:00 0 13 Sur 17 Sur 0 -- -- 94
2019-12-04 00:00:00 0.5 15 Sur 19 Sur 0 -- -- 94
2019-12-03 23:00:00 0.4 13 Sur 18 Sur 0 -- -- 95
2019-12-03 22:00:00 0 17 Sur 21 Sur 0 -- -- 96
2019-12-03 21:00:00 -0.7 7 Este 9 Este 0 -- -- 97
2019-12-03 20:00:00 -0.6 7 Sudeste 14 Sudeste 0 -- -- 95
2019-12-03 19:00:00 -0.4 12 Sur 13 Sur 0 -- -- 93
2019-12-03 18:00:00 2.5 2 Este 9 Norte 0 -- -- 83
2019-12-03 17:00:00 4.2 7 Nordeste 14 Nordeste 0 -- -- 80
2019-12-03 16:00:00 5 7 Norte 15 Norte 0 -- -- 76
2019-12-03 15:00:00 4.9 6 Norte 16 Nordeste 0 -- -- 78
2019-12-03 14:00:00 4.2 10 Norte 17 Nordeste 0 -- -- 78
2019-12-03 13:00:00 3.3 10 Nordeste 22 Nordeste 0 -- -- 82
2019-12-03 12:00:00 2.9 15 Nordeste 22 Nordeste 0 -- -- 82
2019-12-03 11:00:00 2.4 18 Nordeste 30 Nordeste 0 -- -- 82
2019-12-03 10:00:00 0.9 18 Nordeste 25 Nordeste 0 -- -- 86
2019-12-03 09:00:00 -0.3 16 Nordeste 27 Este 0 -- -- 91
2019-12-03 08:00:00 -1.6 16 Nordeste 23 Nordeste 0 -- -- 94
2019-12-03 07:00:00 -1.4 12 Nordeste 22 Nordeste 0 -- -- 94
2019-12-03 06:00:00 -1.3 11 Este 17 Este 0 -- -- 94
2019-12-03 05:00:00 -1.1 12 Nordeste 20 Este 0 -- -- 94
2019-12-03 04:00:00 -1.2 7 Nordeste 16 Nordeste 0 -- -- 95
2019-12-03 03:00:00 -0.8 13 Este 16 Nordeste 0 -- -- 95
2019-12-03 02:00:00 0.1 14 Nordeste 20 Nordeste 0 -- -- 94
2019-12-03 01:00:00 0.9 13 Este 29 Nordeste 0 -- -- 91
2019-12-03 00:00:00 1.6 18 Este 45 Este 0 -- -- 91
2019-12-02 23:00:00 2.4 28 Nordeste 44 Nordeste 0 -- -- 90
2019-12-02 22:00:00 3.1 29 Nordeste 42 Nordeste 0 -- -- 87
2019-12-02 21:00:00 3.9 28 Nordeste 45 Nordeste 0 -- -- 85
2019-12-02 20:00:00 4.8 24 Nordeste 41 Nordeste 0 -- -- 85
2019-12-02 19:00:00 5.1 24 Nordeste 45 Nordeste 0 -- -- 84
2019-12-02 18:00:00 5.7 27 Nordeste 44 Nordeste 0 -- -- 82
2019-12-02 17:00:00 6.2 25 Nordeste 44 Nordeste 0 -- -- 80
2019-12-02 16:00:00 6.2 30 Nordeste 50 Nordeste 0 -- -- 80
2019-12-02 15:00:00 6.4 34 Nordeste 49 Nordeste 0 -- -- 78
2019-12-02 14:00:00 6.3 34 Nordeste 51 Este 0 -- -- 76
2019-12-02 13:00:00 5.8 37 Nordeste 59 Nordeste 0 -- -- 79
2019-12-02 12:00:00 5.3 32 Nordeste 54 Nordeste 0 -- -- 86
2019-12-02 11:00:00 3.6 32 Nordeste 53 Este 0 -- -- 92
2019-12-02 10:00:00 3.2 32 Nordeste 50 Nordeste 0 -- -- 94
2019-12-02 09:00:00 2.8 35 Nordeste 53 Este 0 -- -- 96
2019-12-02 08:00:00 2.8 34 Nordeste 54 Nordeste 0 -- -- 95
2019-12-02 07:00:00 2.8 34 Nordeste 49 Nordeste 0 -- -- 95
2019-12-02 06:00:00 3.1 31 Nordeste 52 Nordeste 0 -- -- 94
2019-12-02 05:00:00 3.3 34 Nordeste 53 Nordeste 0 -- -- 94
2019-12-02 04:00:00 3.7 30 Nordeste 46 Nordeste 0 -- -- 96
2019-12-02 03:00:00 3.8 19 Nordeste 34 Nordeste 0 -- -- 97
2019-12-02 02:00:00 3.8 21 Nordeste 43 Nordeste 0 -- -- 98
2019-12-02 01:00:00 4 27 Nordeste 38 Nordeste 0 -- -- 98
2019-12-02 00:00:00 4.4 25 Nordeste 41 Nordeste 0 -- -- 99
2019-12-01 23:00:00 4.4 22 Nordeste 36 Nordeste 0 -- -- 98
2019-12-01 22:00:00 4.6 23 Nordeste 37 Nordeste 0 -- -- 99
2019-12-01 21:00:00 5.1 22 Nordeste 34 Nordeste 0 -- -- 99
2019-12-01 20:00:00 5.3 19 Nordeste 31 Nordeste 0 -- -- 99
2019-12-01 19:00:00 5.4 16 Nordeste 25 Nordeste 0 -- -- 98
2019-12-01 18:00:00 5.7 15 Nordeste 26 Nordeste 0 -- -- 98
2019-12-01 17:00:00 5.8 12 Nordeste 37 Norte 0 -- -- 96
2019-12-01 16:00:00 8.2 9 Nordeste 18 Nordeste 0 -- -- 80
2019-12-01 15:00:00 8.2 12 Este 20 Este 0 -- -- 83
2019-12-01 14:00:00 8.6 6 Nordeste 11 Nordeste 0 -- -- 77
2019-12-01 13:00:00 8.4 4 Noroeste 14 Noroeste 0 -- -- 77
2019-12-01 12:00:00 7.9 9 Sudoeste 20 Sudoeste 0 -- -- 81
2019-12-01 11:00:00 6.6 12 Sudoeste 22 Sudoeste 0 -- -- 88
2019-12-01 10:00:00 5.6 12 Sur 30 Sudoeste 0 -- -- 92
2019-12-01 09:00:00 5 23 Sudoeste 33 Sudoeste 0 -- -- 94
2019-12-01 08:00:00 4.9 18 Sudoeste 40 Sudoeste 0 -- -- 96
2019-12-01 07:00:00 5.4 20 Sudoeste 37 Sudoeste 0 -- -- 93
2019-12-01 06:00:00 5.4 19 Sur 36 Sudoeste 0 -- -- 93
2019-12-01 05:00:00 5.1 16 Sudoeste 44 Sudoeste 0 -- -- 94
2019-12-01 04:00:00 5.6 24 Sudoeste 44 Sudoeste 0 -- -- 88
2019-12-01 03:00:00 5.1 18 Sudoeste 39 Sudoeste 0 -- -- 89
2019-12-01 02:00:00 4.8 20 Sudoeste 31 Sur 0 -- -- 85
2019-12-01 01:00:00 4.8 19 Sudoeste 30 Sudoeste 0 -- -- 85
2019-12-01 00:00:00 4.4 19 Sudoeste 27 Sudoeste 0 -- -- 89
2019-11-30 23:00:00 4.4 17 Sudoeste 28 Sudoeste 0 -- -- 92
2019-11-30 22:00:00 4.2 13 Sudoeste 25 Sudoeste 0 -- -- 92
2019-11-30 21:00:00 4.4 11 Sudoeste 23 Sudoeste 0 -- -- 96
2019-11-30 20:00:00 4.9 13 Sudoeste 22 Sudoeste 0 -- -- 97
2019-11-30 19:00:00 6 15 Oeste 35 Oeste 0 -- -- 98
2019-11-30 18:00:00 6.6 13 Sudoeste 30 Oeste 0 -- -- 99
2019-11-30 17:00:00 7.4 21 Oeste 43 Oeste 0 -- -- 98
2019-11-30 16:00:00 8.9 24 Oeste 39 Oeste 0 -- -- 98
2019-11-30 15:00:00 10.2 26 Sudoeste 49 Sudoeste 0 -- -- 94
2019-11-30 14:00:00 10.7 21 Sudoeste 40 Sudoeste 0 -- -- 96
2019-11-30 13:00:00 10.9 23 Sudoeste 42 Sudoeste 0 -- -- 93
2019-11-30 12:00:00 11.7 26 Sudoeste 47 Sur 0 -- -- 87
2019-11-30 11:00:00 11.4 31 Sudoeste 48 Sudoeste 0 -- -- 87
2019-11-30 10:00:00 10.9 26 Sudoeste 41 Sudoeste 0 -- -- 89
2019-11-30 09:00:00 10.5 21 Sudoeste 40 Sur 0 -- -- 90
2019-11-30 08:00:00 10.5 21 Sur 45 Sudoeste 0 -- -- 90
2019-11-30 07:00:00 10.6 28 Sudoeste 42 Sudoeste 0 -- -- 90
2019-11-30 06:00:00 10.7 22 Sudoeste 42 Sudoeste 0 -- -- 90
2019-11-30 05:00:00 10.8 22 Sur 32 Sur 0 -- -- 87
2019-11-30 04:00:00 10.7 17 Sudoeste 35 Sur 0 -- -- 89
2019-11-30 03:00:00 10.3 19 Sudoeste 33 Sudoeste 0 -- -- 95
2019-11-30 02:00:00 10.3 18 Sudoeste 31 Sudoeste 0 -- -- 97
2019-11-30 01:00:00 10.5 17 Sudoeste 27 Sudoeste 0 -- -- 97
2019-11-30 00:00:00 10.8 13 Sudoeste 22 Sur 0 -- -- 97
2019-11-29 23:00:00 10.7 11 Sudoeste 28 Sur 0 -- -- 97
2019-11-29 22:00:00 10.6 17 Sudoeste 30 Sudoeste 0 -- -- 98
2019-11-29 21:00:00 10.9 13 Sudoeste 18 Sudoeste 0 -- -- 98
2019-11-29 20:00:00 11.1 9 Sudoeste 17 Sudoeste 0 -- -- 97
2019-11-29 19:00:00 11.2 5 Sur 12 Sur 0 -- -- 96
2019-11-29 18:00:00 11.8 3 Nordeste 5 Nordeste 0 -- -- 95
2019-11-29 17:00:00 11.8 0 Calma 23 Oeste 0 -- -- 95
2019-11-29 16:00:00 12.4 16 Sudoeste 27 Sudoeste 0 -- -- 88
2019-11-29 15:00:00 12.4 17 Sudoeste 28 Sudoeste 0 -- -- 87
2019-11-29 14:00:00 11.5 16 Sur 26 Sur 0 -- -- 90
2019-11-29 13:00:00 11.6 9 Sudoeste 18 Sudoeste 0 -- -- 94
2019-11-29 12:00:00 11.2 12 Sudoeste 23 Sudoeste 0.2 -- -- 97
2019-11-29 11:00:00 11 13 Sudoeste 26 Sudoeste 0 -- -- 97
2019-11-29 10:00:00 10.6 14 Sudoeste 24 Sudoeste 0 -- -- 98
2019-11-29 09:00:00 10.5 17 Sudoeste 28 Sudoeste 0.4 -- -- 98
2019-11-29 08:00:00 10.4 17 Sudoeste 25 Sudoeste 0.6 -- -- 98
2019-11-29 07:00:00 10.5 13 Sudoeste 28 Sudoeste 1.4 -- -- 97
2019-11-29 06:00:00 10.6 17 Sudoeste 31 Sudoeste 1.4 -- -- 97
2019-11-29 05:00:00 10.5 19 Sudoeste 33 Sudoeste 0.2 -- -- 97
2019-11-29 04:00:00 10.4 23 Sudoeste 36 Sudoeste 0.4 -- -- 97
2019-11-29 03:00:00 10.3 24 Sudoeste 37 Sudoeste 0 -- -- 96
2019-11-29 02:00:00 10.5 26 Sudoeste 44 Sudoeste 0 -- -- 93
2019-11-29 01:00:00 10.7 27 Sudoeste 42 Sudoeste 0 -- -- 90
2019-11-29 00:00:00 10.5 30 Sudoeste 53 Sudoeste 0 -- -- 90
2019-11-28 23:00:00 10.3 31 Sudoeste 55 Sur 0 -- -- 91
2019-11-28 22:00:00 10.4 35 Sudoeste 57 Sudoeste 0 -- -- 88
2019-11-28 21:00:00 10.3 37 Sudoeste 54 Sudoeste 0 -- -- 85
2019-11-28 20:00:00 10.1 26 Sudoeste 50 Sudoeste 0 -- -- 84
2019-11-28 19:00:00 9.8 25 Sudoeste 50 Sudoeste 0 -- -- 87
2019-11-28 18:00:00 10.1 31 Sudoeste 57 Sur 0 -- -- 84
2019-11-28 17:00:00 10 31 Sudoeste 50 Sudoeste 0 -- -- 84
2019-11-28 16:00:00 10 30 Sudoeste 46 Sudoeste 0 -- -- 82
2019-11-28 15:00:00 10.8 26 Sudoeste 45 Sudoeste 0 -- -- 81
2019-11-28 14:00:00 10.4 21 Sudoeste 39 Sudoeste 0 -- -- 86
2019-11-28 13:00:00 9.7 26 Sudoeste 44 Sudoeste 0 -- -- 84
2019-11-28 12:00:00 10.1 25 Sudoeste 39 Sudoeste 0 -- -- 83
2019-11-28 11:00:00 9.6 29 Sudoeste 44 Sur 0 -- -- 88
2019-11-28 10:00:00 9 22 Sur 41 Sudoeste 0 -- -- 86
2019-11-28 09:00:00 8.4 17 Sudoeste 41 Sur 0 -- -- 91
2019-11-28 08:00:00 7.9 18 Sudoeste 30 Sudoeste 0 -- -- 94
2019-11-28 07:00:00 8.2 19 Sudoeste 40 Sudoeste 0 -- -- 91
2019-11-28 06:00:00 8.3 24 Sudoeste 39 Sudoeste 0 -- -- 90
2019-11-28 05:00:00 7.6 22 Sudoeste 34 Sudoeste 0 -- -- 94
2019-11-28 04:00:00 7.5 19 Sudoeste 39 Sudoeste 0 -- -- 95
2019-11-28 03:00:00 7.4 18 Sudoeste 32 Sudoeste 0 -- -- 93
2019-11-28 02:00:00 7.2 15 Sudoeste 25 Sudoeste 0 -- -- 92
2019-11-28 01:00:00 7.6 13 Sudoeste 29 Sudoeste 0 -- -- 87
2019-11-28 00:00:00 7.5 21 Sudoeste 40 Sudoeste 0 -- -- 90
2019-11-27 23:00:00 7.3 23 Sudoeste 35 Sudoeste 0 -- -- 90
2019-11-27 22:00:00 6.9 19 Sudoeste 41 Sudoeste 0 -- -- 91
2019-11-27 21:00:00 7.5 21 Sudoeste 35 Sudoeste 0 -- -- 91
2019-11-27 20:00:00 7.5 23 Sudoeste 35 Sudoeste 0 -- -- 89
2019-11-27 19:00:00 7.8 21 Sudoeste 35 Sudoeste 0 -- -- 89
2019-11-27 18:00:00 8.4 20 Sudoeste 33 Sudoeste 0 -- -- 87
2019-11-27 17:00:00 8.7 18 Sudoeste 35 Sudoeste 0 -- -- 86
2019-11-27 16:00:00 9.7 19 Sudoeste 35 Sudoeste 0 -- -- 77
2019-11-27 15:00:00 9.4 21 Sudoeste 40 Sudoeste 0 -- -- 79
2019-11-27 14:00:00 8.7 19 Sudoeste 35 Sudoeste 0 -- -- 90
2019-11-27 06:00:00 5.8 15 Sudoeste 32 Sudoeste 0 -- -- 92
2019-11-27 05:00:00 5.6 16 Sudoeste 27 Sudoeste 0 -- -- 90
2019-11-27 04:00:00 5.4 20 Sudoeste 36 Sudoeste 0 -- -- 91
2019-11-27 03:00:00 5.9 23 Sudoeste 34 Sudoeste 0 -- -- 88
2019-11-27 02:00:00 7.2 20 Sudoeste 41 Oeste 0 -- -- 90
2019-11-27 01:00:00 8.5 22 Oeste 39 Sudoeste 0 -- -- 95
2019-11-27 00:00:00 8.7 21 Sudoeste 43 Sudoeste 0 -- -- 95
2019-11-26 23:00:00 9.2 24 Sudoeste 46 Sudoeste 0.8 -- -- 95
2019-11-26 22:00:00 9.4 28 Sudoeste 54 Sudoeste 0.6 -- -- 95
2019-11-26 21:00:00 10.3 37 Sudoeste 62 Sur 0 -- -- 84
2019-11-26 20:00:00 10.2 37 Sudoeste 60 Sur 0 -- -- 83
2019-11-26 19:00:00 10.3 31 Sudoeste 60 Sudoeste 0 -- -- 87
2019-11-26 18:00:00 11.2 33 Sudoeste 58 Sudoeste 0 -- -- 91
2019-11-26 17:00:00 11.8 31 Sudoeste 64 Sur 1 -- -- 94
2019-11-26 16:00:00 12.1 32 Sudoeste 64 Sudoeste 0.2 -- -- 90
2019-11-26 15:00:00 12.2 35 Sur 72 Sur 0 -- -- 90
2019-11-26 14:00:00 11.7 31 Sur 59 Sur 1 -- -- 92
2019-11-26 13:00:00 12.8 32 Sur 61 Sur 0.2 -- -- 86
2019-11-26 12:00:00 11.4 35 Sur 58 Sur 1 -- -- 92
2019-11-26 11:00:00 11.7 26 Sur 52 Sur 0 -- -- 91
2019-11-26 10:00:00 11.1 25 Sur 45 Sudoeste 0 -- -- 90
2019-11-26 09:00:00 11.1 22 Sur 48 Sur 0.2 -- -- 89
2019-11-26 08:00:00 11.2 28 Sur 53 Sur 0 -- -- 82
2019-11-26 07:00:00 11.4 32 Sur 52 Sur 0 -- -- 85
2019-11-26 06:00:00 11.2 28 Sur 43 Sur 0 -- -- 87
2019-11-26 05:00:00 11.4 26 Sudoeste 46 Sur 0 -- -- 90
2019-11-26 04:00:00 11.9 27 Sudoeste 49 Sudoeste 0 -- -- 89
2019-11-26 03:00:00 11.5 27 Sudoeste 41 Sudoeste 0 -- -- 89
2019-11-26 02:00:00 11.3 17 Sudoeste 28 Sudoeste 0 -- -- 83
2019-11-26 01:00:00 7.7 2 Este 15 Este 0 -- -- 88
2019-11-26 00:00:00 7.7 4 Sudoeste 16 Sur 0 -- -- 93
2019-11-25 23:00:00 7 6 Sur 12 Noroeste 0 -- -- 92
2019-11-25 22:00:00 7.8 7 Sur 14 Sur 0 -- -- 92
2019-11-25 21:00:00 8.8 10 Sur 16 Sur 0 -- -- 92
2019-11-25 20:00:00 9.3 7 Sur 14 Sudoeste 0 -- -- 91
2019-11-25 19:00:00 9.6 10 Sudoeste 17 Sudoeste 0 -- -- 90
2019-11-25 18:00:00 9.6 9 Sudoeste 18 Oeste 0 -- -- 90
2019-11-25 17:00:00 10.5 13 Oeste 28 Oeste 0 -- -- 88
2019-11-25 16:00:00 11.2 18 Oeste 30 Oeste 0 -- -- 84
2019-11-25 15:00:00 12.5 22 Oeste 36 Sudoeste 0 -- -- 78
2019-11-25 14:00:00 12.3 27 Sudoeste 42 Sudoeste 0 -- -- 74
2019-11-25 13:00:00 11.7 22 Oeste 37 Sudoeste 0 -- -- 81
2019-11-25 12:00:00 11.1 26 Sudoeste 35 Sudoeste 0 -- -- 83
2019-11-25 11:00:00 10.1 18 Sudoeste 34 Sudoeste 0 -- -- 90
2019-11-25 10:00:00 9.8 18 Sudoeste 31 Sudoeste 0 -- -- 91
2019-11-25 09:00:00 8.8 17 Sudoeste 28 Sudoeste 0 -- -- 92
2019-11-25 08:00:00 8.7 16 Sudoeste 30 Sudoeste 0 -- -- 93
2019-11-25 07:00:00 8.8 22 Sudoeste 42 Sudoeste 0 -- -- 93
2019-11-25 06:00:00 9.1 14 Sudoeste 47 Sudoeste 0 -- -- 92
2019-11-25 05:00:00 9.1 22 Sudoeste 45 Sudoeste 0 -- -- 96
2019-11-25 04:00:00 9.2 25 Sudoeste 58 Oeste 0 -- -- 96
2019-11-25 03:00:00 9.7 28 Sudoeste 46 Sudoeste 0.2 -- -- 97
2019-11-25 02:00:00 10.5 31 Sudoeste 54 Sudoeste 0 -- -- 91
2019-11-25 01:00:00 10.3 32 Sudoeste 57 Sudoeste 0 -- -- 89
2019-11-25 00:00:00 10.4 40 Sudoeste 58 Sudoeste 0.2 -- -- 89
2019-11-24 23:00:00 9.9 32 Sudoeste 55 Sudoeste 0 -- -- 88
2019-11-24 22:00:00 9.9 30 Sudoeste 53 Sudoeste 0 -- -- 87
2019-11-24 21:00:00 9.2 30 Sudoeste 49 Sur 0 -- -- 88
2019-11-24 20:00:00 8.6 25 Sudoeste 45 Sur 0 -- -- 87
2019-11-24 19:00:00 7.9 23 Sudoeste 42 Sudoeste 0 -- -- 89
2019-11-24 18:00:00 8 23 Sudoeste 39 Sudoeste 0 -- -- 86
2019-11-24 17:00:00 8.6 20 Sudoeste 32 Sudoeste 0 -- -- 83
2019-11-24 16:00:00 9.8 15 Sudoeste 31 Sudoeste 0 -- -- 77
2019-11-24 15:00:00 8.9 17 Oeste 25 Oeste 0 -- -- 75
2019-11-24 14:00:00 9.3 13 Oeste 28 Sudoeste 0 -- -- 72
2019-11-24 13:00:00 7.8 14 Sudoeste 24 Oeste 0 -- -- 78
2019-11-24 12:00:00 6.4 14 Oeste 23 Oeste 0 -- -- 86
2019-11-24 11:00:00 5.4 12 Oeste 19 Oeste 0 -- -- 86
2019-11-24 10:00:00 5.1 8 Sudoeste 12 Sudoeste 0 -- -- 87
2019-11-24 09:00:00 2.2 7 Sur 11 Sudoeste 0 -- -- 96
2019-11-24 08:00:00 2 8 Sudoeste 13 Sudoeste 0 -- -- 98
2019-11-24 07:00:00 2 9 Sudoeste 15 Sudoeste 0 -- -- 98
2019-11-24 06:00:00 1.8 10 Sudoeste 19 Sudoeste 0 -- -- 98
2019-11-24 05:00:00 2 12 Sudoeste 18 Sudoeste 0 -- -- 98
2019-11-24 04:00:00 2.2 12 Sudoeste 18 Sudoeste 0 -- -- 98
2019-11-24 03:00:00 2.5 11 Sudoeste 25 Sudoeste 0 -- -- 97
2019-11-24 02:00:00 2.9 14 Sudoeste 25 Sudoeste 0 -- -- 97
2019-11-24 01:00:00 3.2 12 Sudoeste 24 Sudoeste 0 -- -- 96
2019-11-24 00:00:00 4.1 14 Oeste 30 Oeste 0 -- -- 95
2019-11-23 23:00:00 4.4 16 Sudoeste 27 Sudoeste 0 -- -- 96
2019-11-23 22:00:00 4.1 15 Sudoeste 29 Sudoeste 0 -- -- 95
2019-11-23 21:00:00 4 11 Sudoeste 18 Sudoeste 0 -- -- 92
2019-11-23 20:00:00 3.8 12 Sudoeste 22 Sudoeste 0 -- -- 91
2019-11-23 19:00:00 4.4 14 Sudoeste 23 Sudoeste 0 -- -- 88
2019-11-23 18:00:00 5.3 12 Oeste 32 Oeste 0 -- -- 81
2019-11-23 17:00:00 6.7 18 Oeste 34 Oeste 0 -- -- 74
2019-11-23 16:00:00 6.9 19 Oeste 38 Oeste 0 -- -- 74
2019-11-23 15:00:00 7 21 Oeste 37 Oeste 0 -- -- 75
2019-11-23 14:00:00 6.2 18 Oeste 33 Oeste 0 -- -- 79
2019-11-23 13:00:00 5.9 17 Oeste 36 Oeste 0 -- -- 81
2019-11-23 12:00:00 5.2 21 Oeste 34 Oeste 0 -- -- 89
2019-11-23 11:00:00 4.3 18 Oeste 30 Oeste 0 -- -- 93
2019-11-23 10:00:00 3.4 21 Oeste 31 Oeste 0 -- -- 95
2019-11-23 09:00:00 2.9 17 Oeste 36 Oeste 0 -- -- 97
2019-11-23 08:00:00 2.9 25 Oeste 37 Sudoeste 0 -- -- 97
2019-11-23 07:00:00 2.7 26 Sudoeste 39 Sudoeste 0 -- -- 96
2019-11-23 06:00:00 2.2 19 Oeste 44 Oeste 0 -- -- 96
2019-11-23 05:00:00 3.1 30 Oeste 49 Sudoeste 0 -- -- 94
2019-11-23 04:00:00 3.2 26 Oeste 51 Oeste 0 -- -- 96
2019-11-23 03:00:00 3.4 37 Oeste 53 Oeste 0 -- -- 96
2019-11-23 02:00:00 3.5 30 Oeste 50 Sudoeste 0 -- -- 95
2019-11-23 01:00:00 3.6 30 Oeste 51 Oeste 0 -- -- 96
2019-11-23 00:00:00 3.8 40 Oeste 68 Sudoeste 2 -- -- 94
2019-11-22 23:00:00 5.6 33 Oeste 53 Sudoeste 0 -- -- 95
2019-11-22 22:00:00 6 32 Sudoeste 58 Sudoeste 1.4 -- -- 95
2019-11-22 21:00:00 6.3 26 Sudoeste 50 Sudoeste 0 -- -- 92
2019-11-22 20:00:00 6.2 23 Sudoeste 46 Sudoeste 0.2 -- -- 94
2019-11-22 19:00:00 6.3 21 Sudoeste 40 Sudoeste 0.8 -- -- 96
2019-11-22 18:00:00 7.3 22 Sudoeste 50 Oeste 0 -- -- 81
2019-11-22 17:00:00 9.3 21 Oeste 51 Sudoeste 0 -- -- 80
2019-11-22 16:00:00 10 26 Sudoeste 47 Oeste 0 -- -- 83
2019-11-22 15:00:00 11.6 25 Sudoeste 53 Sudoeste 0 -- -- 83
2019-11-22 14:00:00 10.3 30 Sudoeste 61 Sudoeste 0 -- -- 92
2019-11-22 13:00:00 11 35 Sudoeste 78 Sur 0 -- -- 87
2019-11-22 12:00:00 9.5 44 Sur 81 Sur 2.4 -- -- 90
2019-11-22 11:00:00 8.6 45 Sur 75 Sur 1.2 -- -- 92
2019-11-22 10:00:00 8.5 52 Sur 78 Sur 0 -- -- 89
2019-11-22 09:00:00 8.1 53 Sur 91 Sur 0 -- -- 90
2019-11-22 08:00:00 7.5 46 Sur 80 Sur 0 -- -- 91
2019-11-22 07:00:00 6.9 45 Sur 68 Sur 0.6 -- -- 91
2019-11-22 06:00:00 6.4 37 Sur 61 Sur 1.6 -- -- 92
2019-11-22 05:00:00 6.1 28 Sur 56 Sur 2.6 -- -- 92
2019-11-22 04:00:00 6.3 31 Sur 53 Sur 2.2 -- -- 90
2019-11-22 03:00:00 6.5 22 Sudoeste 41 Sur 1.6 -- -- 93
2019-11-22 02:00:00 6.4 24 Sur 44 Sudoeste 0 -- -- 91
2019-11-22 01:00:00 6.3 23 Sudoeste 42 Sur 0 -- -- 91
2019-11-22 00:00:00 6.1 18 Sur 34 Sur 0 -- -- 89
2019-11-21 23:00:00 6 17 Sur 27 Sudoeste 0.2 -- -- 92
2019-11-21 22:00:00 5.7 2 Noroeste 15 Sudoeste 0.6 -- -- 96
2019-11-21 21:00:00 5.9 9 Sudoeste 24 Sur 0 -- -- 93
2019-11-21 20:00:00 5.9 9 Sur 16 Sur 0 -- -- 92
2019-11-21 19:00:00 5.4 9 Sur 16 Sur 0 -- -- 92
2019-11-21 18:00:00 5.5 2 Sur 13 Sudoeste 0.2 -- -- 95
2019-11-21 17:00:00 5.7 9 Sudoeste 14 Sudoeste 1 -- -- 95
2019-11-21 16:00:00 5.8 7 Sur 21 Noroeste 2.2 -- -- 95
2019-11-21 15:00:00 6.8 10 Sur 34 Sudoeste 0 -- -- 86
2019-11-21 14:00:00 8 18 Sudoeste 28 Sudoeste 0 -- -- 79
2019-11-21 13:00:00 7.9 13 Sudoeste 25 Sudoeste 0 -- -- 82
2019-11-21 12:00:00 7 12 Sudoeste 28 Sudoeste 0 -- -- 92
2019-11-21 11:00:00 6.4 15 Sudoeste 28 Sudoeste 0 -- -- 92
2019-11-21 10:00:00 6.1 17 Sudoeste 29 Sudoeste 0 -- -- 94
2019-11-21 09:00:00 5.5 18 Sudoeste 32 Sudoeste 0 -- -- 93
2019-11-21 08:00:00 5.2 17 Sudoeste 35 Sudoeste 0 -- -- 94
2019-11-21 07:00:00 5.1 18 Sudoeste 31 Sudoeste 0 -- -- 94
2019-11-21 06:00:00 4.9 21 Sudoeste 33 Sudoeste 0 -- -- 94
2019-11-21 05:00:00 4.6 16 Sudoeste 30 Sudoeste 0 -- -- 93
2019-11-21 04:00:00 4.5 14 Sur 30 Sur 0 -- -- 92
2019-11-21 03:00:00 4.3 17 Sur 33 Sur 0 -- -- 90
2019-11-21 02:00:00 4 17 Sur 29 Sudoeste 0 -- -- 92
2019-11-21 01:00:00 4.6 17 Sudoeste 32 Sur 0 -- -- 90
2019-11-21 00:00:00 4.9 18 Sur 32 Sur 0 -- -- 85
2019-11-20 23:00:00 4.4 15 Sur 30 Sur 0 -- -- 89
2019-11-20 22:00:00 4 15 Sur 29 Sur 0 -- -- 89
2019-11-20 21:00:00 3.9 15 Sudoeste 25 Sudoeste 0 -- -- 91
2019-11-20 20:00:00 4.5 16 Sur 31 Sur 0 -- -- 88
2019-11-20 19:00:00 4.7 14 Sudoeste 28 Sur 0 -- -- 85
2019-11-20 18:00:00 4.4 21 Sur 36 Sur 0 -- -- 89
2019-11-20 17:00:00 5.8 4 Oeste 26 Sudoeste 0 -- -- 85
2019-11-20 16:00:00 5.1 15 Sudoeste 29 Sudoeste 0 -- -- 90
2019-11-20 15:00:00 5.4 15 Sudoeste 32 Sur 0 -- -- 88
2019-11-20 14:00:00 5.5 18 Sur 58 Sur 0 -- -- 89
2019-11-20 13:00:00 4.2 35 Sur 57 Sur 0 -- -- 91
2019-11-20 12:00:00 4.2 31 Sur 52 Sur 0 -- -- 91
2019-11-20 11:00:00 4.2 15 Sur 22 Sudeste 0 -- -- 90
2019-11-20 10:00:00 4 13 Sudoeste 31 Sudoeste 0 -- -- 91
2019-11-20 09:00:00 2.9 13 Sur 27 Sur 0 -- -- 92
2019-11-20 08:00:00 3.1 9 Sur 24 Sudeste 0 -- -- 93
2019-11-20 07:00:00 3.3 7 Este 35 Sudeste 0 -- -- 91
2019-11-20 06:00:00 4 23 Sur 33 Sur 0 -- -- 89
2019-11-20 05:00:00 4.8 8 Sur 14 Sur 0 -- -- 89
2019-11-20 04:00:00 5.7 6 Sudeste 20 Sudoeste 0 -- -- 88
2019-11-20 03:00:00 5.5 5 Sudeste 25 Sur 0 -- -- 90
2019-11-20 02:00:00 6.1 11 Sudoeste 19 Sudoeste 0 -- -- 88
2019-11-20 01:00:00 5.2 5 Sudeste 10 Sudeste 0 -- -- 85
2019-11-20 00:00:00 5.1 4 Norte 6 Norte 0 -- -- 81
2019-11-19 23:00:00 4.8 0 Calma 4 Sudeste 0 -- -- 80
2019-11-19 22:00:00 4.9 2 Sudeste 4 Nordeste 0 -- -- 81
2019-11-19 21:00:00 4.9 0 Calma 8 Sudeste 0 -- -- 76
2019-11-19 20:00:00 4.7 2 Sur 4 Sudeste 0 -- -- 80
2019-11-19 19:00:00 4.9 0 Calma 6 Sudeste 0 -- -- 74
2019-11-19 18:00:00 5.6 0 Calma 11 Sudoeste 0 -- -- 70
2019-11-19 17:00:00 6.6 3 Oeste 9 Oeste 0 -- -- 69
2019-11-19 16:00:00 7.2 8 Sudoeste 19 Sur 0 -- -- 64
2019-11-19 15:00:00 7.3 13 Sudoeste 22 Sudoeste 0 -- -- 59
2019-11-19 14:00:00 8.2 10 Oeste 18 Oeste 0 -- -- 59
2019-11-19 13:00:00 7.6 5 Sudoeste 17 Sur 0 -- -- 56
2019-11-19 12:00:00 7.2 8 Sudoeste 13 Sudoeste 0 -- -- 59
2019-11-19 11:00:00 6.2 3 Noroeste 6 Oeste 0 -- -- 70
2019-11-19 10:00:00 4.4 6 Sur 16 Sur 0 -- -- 77
2019-11-19 09:00:00 0.9 13 Sudeste 17 Sur 0 -- -- 87
2019-11-19 08:00:00 0.8 12 Sudeste 14 Sudeste 0 -- -- 89
2019-11-19 07:00:00 0.4 11 Sur 15 Sudeste 0 -- -- 92
2019-11-19 06:00:00 0.1 11 Sur 18 Sur 0 -- -- 93
2019-11-19 05:00:00 0.3 14 Sur 18 Sur 0 -- -- 94
2019-11-19 04:00:00 0.1 11 Sur 17 Sudeste 0 -- -- 95
2019-11-19 03:00:00 0.5 11 Sur 18 Sur 0 -- -- 95
2019-11-19 02:00:00 0.7 14 Sur 19 Sur 0 -- -- 96
2019-11-19 01:00:00 0.4 14 Sur 18 Sur 0 -- -- 95
2019-11-19 00:00:00 0.5 11 Sur 19 Sur 0 -- -- 95
2019-11-18 23:00:00 0.7 12 Sur 17 Sudeste 0 -- -- 93
2019-11-18 22:00:00 0.8 12 Sur 14 Sur 0 -- -- 93
2019-11-18 21:00:00 0.8 10 Sudeste 14 Sur 0 -- -- 93
2019-11-18 20:00:00 1.3 12 Sur 14 Sur 0 -- -- 93
2019-11-18 19:00:00 1.7 9 Sudeste 10 Sur 0 -- -- 90
2019-11-18 18:00:00 5 6 Sudeste 16 Nordeste 0 -- -- 78
2019-11-18 17:00:00 6.7 9 Nordeste 18 Nordeste 0 -- -- 72
2019-11-18 16:00:00 7.2 12 Nordeste 19 Nordeste 0 -- -- 70
2019-11-18 15:00:00 7.6 8 Norte 16 Nordeste 0 -- -- 70
2019-11-18 14:00:00 7 13 Nordeste 21 Norte 0 -- -- 71
2019-11-18 13:00:00 6.1 10 Nordeste 23 Nordeste 0 -- -- 77
2019-11-18 12:00:00 5.6 11 Nordeste 16 Nordeste 0 -- -- 77
2019-11-18 11:00:00 4.5 9 Nordeste 19 Este 0 -- -- 84
2019-11-18 10:00:00 3.4 7 Este 14 Este 0 -- -- 98
2019-11-18 09:00:00 1.4 5 Este 9 Este 0 -- -- 100
2019-11-18 08:00:00 1.6 3 Nordeste 18 Norte 0 -- -- 100
2019-11-18 07:00:00 2 6 Norte 22 Noroeste 0 -- -- 100
2019-11-18 06:00:00 2.1 8 Noroeste 19 Noroeste 0 -- -- 100
2019-11-18 05:00:00 2.3 9 Noroeste 16 Oeste 0 -- -- 100
2019-11-18 04:00:00 2.4 9 Noroeste 19 Noroeste 0 -- -- 99
2019-11-18 03:00:00 2.5 9 Oeste 18 Oeste 0 -- -- 99
2019-11-18 02:00:00 2.7 10 Oeste 17 Oeste 0 -- -- 97
2019-11-18 01:00:00 2.6 6 Oeste 14 Oeste 0 -- -- 96
2019-11-18 00:00:00 2.4 5 Oeste 24 Oeste 0 -- -- 97
2019-11-17 23:00:00 2.3 10 Oeste 20 Oeste 0 -- -- 98
2019-11-17 22:00:00 3.3 10 Noroeste 24 Noroeste 0 -- -- 99
2019-11-17 21:00:00 4.9 17 Noroeste 26 Noroeste 0 -- -- 99
2019-11-17 20:00:00 5.8 13 Oeste 30 Oeste 0 -- -- 100
2019-11-17 19:00:00 6.1 17 Oeste 31 Oeste 0 -- -- 100
2019-11-17 18:00:00 6.7 19 Oeste 36 Sudoeste 0 -- -- 99
2019-11-17 17:00:00 7.5 19 Sudoeste 37 Sudoeste 0 -- -- 99
2019-11-17 16:00:00 7.7 22 Sudoeste 39 Sudoeste 0 -- -- 99
2019-11-17 15:00:00 8.1 16 Oeste 36 Oeste 0 -- -- 98
2019-11-17 14:00:00 8 20 Oeste 38 Oeste 0 -- -- 97
2019-11-17 13:00:00 8.2 21 Sudoeste 36 Sudoeste 0 -- -- 98
2019-11-17 12:00:00 7.1 24 Sur 37 Sur 0 -- -- 100
2019-11-17 11:00:00 6.8 19 Sudoeste 30 Sudoeste 0 -- -- 98
2019-11-17 10:00:00 6.4 18 Sudoeste 27 Sudoeste 0 -- -- 99
2019-11-17 09:00:00 6.1 18 Sudoeste 28 Sudoeste 0 -- -- 98
2019-11-17 08:00:00 6.1 13 Sudoeste 27 Sudoeste 0 -- -- 97
2019-11-17 07:00:00 4 3 Sudoeste 9 Este 0 -- -- 98
2019-11-17 06:00:00 3.9 5 Este 9 Este 0 -- -- 97
2019-11-17 05:00:00 3.8 3 Sudoeste 12 Sudoeste 0 -- -- 97
2019-11-17 04:00:00 3.3 7 Sudoeste 17 Sudoeste 0 -- -- 94
2019-11-17 03:00:00 3.2 9 Sudoeste 21 Sur 0 -- -- 83
2019-11-17 02:00:00 3 13 Sudoeste 21 Sudoeste 0 -- -- 85
2019-11-17 01:00:00 2.2 11 Sudoeste 17 Sudoeste 0 -- -- 91
2019-11-17 00:00:00 1.2 10 Sudoeste 15 Sudoeste 0 -- -- 94
2019-11-16 23:00:00 1.2 8 Sur 14 Sudoeste 0 -- -- 93
2019-11-16 22:00:00 2.1 7 Sudoeste 15 Sudoeste 0 -- -- 90
2019-11-16 21:00:00 2.7 8 Sudoeste 15 Sudoeste 0 -- -- 89
2019-11-16 20:00:00 2.9 8 Oeste 23 Oeste 0 -- -- 83
2019-11-16 19:00:00 3.3 14 Oeste 23 Sudoeste 0 -- -- 81
2019-11-16 18:00:00 3.1 8 Sudoeste 12 Oeste 0 -- -- 85
2019-11-16 17:00:00 4 11 Oeste 21 Sudoeste 0 -- -- 79
2019-11-16 16:00:00 5.3 15 Oeste 26 Oeste 0 -- -- 76
2019-11-16 15:00:00 4.3 11 Oeste 24 Oeste 0 -- -- 79
2019-11-16 14:00:00 3.7 10 Oeste 24 Oeste 0 -- -- 83
2019-11-16 13:00:00 3.5 15 Oeste 24 Oeste 0 -- -- 84
2019-11-16 12:00:00 4 12 Oeste 18 Oeste 0 -- -- 79
2019-11-16 11:00:00 1.7 6 Oeste 14 Oeste 0 -- -- 93
2019-11-16 10:00:00 0.1 5 Oeste 10 Sudoeste 0 -- -- 98
2019-11-16 09:00:00 -0.6 5 Oeste 9 Oeste 0 -- -- 99
2019-11-16 08:00:00 -0.7 3 Oeste 9 Oeste 0 -- -- 98
2019-11-16 07:00:00 -0.5 3 Norte 8 Noroeste 0 -- -- 98
2019-11-16 06:00:00 -0.4 3 Norte 14 Noroeste 0 -- -- 99
2019-11-16 05:00:00 -0.3 4 Noroeste 13 Noroeste 0 -- -- 99
2019-11-16 04:00:00 -0.3 5 Noroeste 13 Noroeste 0 -- -- 98
2019-11-16 03:00:00 -0.1 6 Oeste 13 Oeste 0 -- -- 97
2019-11-16 02:00:00 0.3 6 Oeste 15 Oeste 0 -- -- 96
2019-11-16 01:00:00 0.6 7 Noroeste 17 Noroeste 0 -- -- 95
2019-11-16 00:00:00 0.7 9 Oeste 18 Oeste 0 -- -- 94
2019-11-15 23:00:00 0.8 9 Sudoeste 15 Oeste 0 -- -- 92
2019-11-15 22:00:00 0.8 11 Oeste 17 Oeste 0 -- -- 92
2019-11-15 21:00:00 -0.2 9 Sudoeste 16 Oeste 0 -- -- 90
2019-11-15 20:00:00 0.7 8 Oeste 21 Oeste 0 -- -- 84
2019-11-15 19:00:00 2 13 Oeste 25 Oeste 0 -- -- 81
2019-11-15 18:00:00 2.2 12 Oeste 28 Noroeste 0 -- -- 79
2019-11-15 17:00:00 2.9 17 Noroeste 31 Noroeste 0 -- -- 76
2019-11-15 16:00:00 2.9 14 Noroeste 32 Noroeste 0 -- -- 77
2019-11-15 15:00:00 3.3 22 Noroeste 32 Noroeste 0 -- -- 73
2019-11-15 14:00:00 3 15 Noroeste 36 Noroeste 0 -- -- 78
2019-11-15 13:00:00 3.2 22 Noroeste 34 Oeste 0 -- -- 76
2019-11-15 12:00:00 2.2 16 Noroeste 30 Oeste 0 -- -- 87
2019-11-15 11:00:00 1.5 15 Noroeste 24 Oeste 0 -- -- 94
2019-11-15 10:00:00 0.4 10 Noroeste 23 Oeste 0 -- -- 97
2019-11-15 09:00:00 -0.2 12 Oeste 19 Oeste 0 -- -- 97
2019-11-15 08:00:00 -0.3 10 Oeste 24 Oeste 0 -- -- 96
2019-11-15 07:00:00 -0.4 13 Oeste 23 Oeste 0 -- -- 95
2019-11-15 06:00:00 -0.2 13 Oeste 22 Oeste 0 -- -- 94
2019-11-15 05:00:00 -0.2 14 Oeste 22 Oeste 0 -- -- 93
2019-11-15 04:00:00 -0.1 10 Sudoeste 24 Sudoeste 0 -- -- 93
2019-11-15 03:00:00 0.2 13 Sudoeste 21 Oeste 0 -- -- 95
2019-11-15 02:00:00 0.4 12 Sudoeste 26 Oeste 0 -- -- 94
2019-11-15 01:00:00 0.8 13 Oeste 33 Oeste 0 -- -- 91
2019-11-15 00:00:00 1.5 14 Oeste 24 Oeste 0 -- -- 93
2019-11-14 23:00:00 1.9 13 Oeste 30 Oeste 0 -- -- 90
2019-11-14 22:00:00 2 23 Oeste 35 Oeste 0 -- -- 91
2019-11-14 21:00:00 2.1 19 Oeste 45 Oeste 0 -- -- 94
2019-11-14 20:00:00 2.7 24 Oeste 50 Sudoeste 0 -- -- 98
2019-11-14 19:00:00 2.9 27 Oeste 47 Oeste 0 -- -- 98
2019-11-14 18:00:00 2.9 22 Oeste 48 Oeste 0 -- -- 98
2019-11-14 17:00:00 3.4 28 Oeste 52 Oeste 0 -- -- 98
2019-11-14 16:00:00 3 33 Oeste 56 Oeste 0 -- -- 98
2019-11-14 15:00:00 2.2 33 Sudoeste 55 Oeste 0 -- -- 96
2019-11-14 14:00:00 3 34 Oeste 51 Oeste 0 -- -- 89
2019-11-14 13:00:00 3 34 Oeste 54 Sudoeste 0 -- -- 88
2019-11-14 12:00:00 2.5 30 Oeste 45 Sudoeste 0 -- -- 92
2019-11-14 11:00:00 1.8 24 Oeste 45 Oeste 0 -- -- 99
2019-11-14 10:00:00 1.7 17 Oeste 33 Oeste 0 -- -- 99
2019-11-14 09:00:00 1.7 17 Oeste 27 Oeste 0 -- -- 99
2019-11-14 08:00:00 0.7 10 Sudoeste 33 Noroeste 0 -- -- 99
2019-11-14 07:00:00 3 29 Oeste 51 Oeste 0 -- -- 98
2019-11-14 06:00:00 4.6 32 Oeste 58 Oeste 0 -- -- 97
2019-11-14 05:00:00 5.6 33 Oeste 55 Oeste 0 -- -- 97
2019-11-14 04:00:00 5.1 19 Sudoeste 37 Sudoeste 0 -- -- 96
2019-11-14 03:00:00 5.7 21 Sudoeste 38 Sudoeste 0 -- -- 90
2019-11-14 02:00:00 5.8 25 Sudoeste 41 Sudoeste 0 -- -- 89
2019-11-14 01:00:00 5.8 24 Sudoeste 48 Sudoeste 0 -- -- 87
2019-11-14 00:00:00 5.7 20 Sudoeste 37 Sudoeste 0 -- -- 87
2019-11-13 23:00:00 5.5 20 Sudoeste 36 Oeste 0 -- -- 89
2019-11-13 22:00:00 6.7 24 Sudoeste 37 Sudoeste 0 -- -- 92
2019-11-13 21:00:00 7.7 23 Oeste 36 Oeste 0 -- -- 94
2019-11-13 20:00:00 8.8 19 Sudoeste 30 Sudoeste 0 -- -- 92
2019-11-13 19:00:00 9.4 15 Sudoeste 28 Sudoeste 0 -- -- 88
2019-11-13 18:00:00 10.3 14 Oeste 23 Oeste 0 -- -- 86
2019-11-13 17:00:00 11.2 10 Oeste 29 Oeste 0 -- -- 81
2019-11-13 16:00:00 11.8 15 Oeste 31 Oeste 0 -- -- 75
2019-11-13 15:00:00 12.6 22 Oeste 33 Oeste 0 -- -- 72
2019-11-13 14:00:00 12.4 14 Noroeste 22 Oeste 0 -- -- 73
2019-11-13 13:00:00 10.9 7 Oeste 22 Noroeste 0 -- -- 89
2019-11-13 12:00:00 9.7 9 Oeste 31 Noroeste 0 -- -- 99
2019-11-13 11:00:00 9.1 13 Oeste 24 Oeste 0 -- -- 100
2019-11-13 10:00:00 8.6 12 Noroeste 24 Sudoeste 0 -- -- 99
2019-11-13 09:00:00 8.5 14 Oeste 28 Oeste 0 -- -- 99
2019-11-13 08:00:00 8.7 19 Oeste 32 Oeste 0 -- -- 99
2019-11-13 07:00:00 9 19 Oeste 39 Oeste 0 -- -- 99
2019-11-13 06:00:00 9.6 23 Oeste 50 Sudoeste 0 -- -- 99
2019-11-13 05:00:00 9.7 26 Oeste 50 Oeste 0 -- -- 99
2019-11-13 04:00:00 9.1 23 Sudoeste 44 Sudoeste 0 -- -- 99
2019-11-13 03:00:00 8.8 26 Sudoeste 46 Sudoeste 0 -- -- 99
2019-11-13 02:00:00 8.6 28 Sudoeste 46 Sudoeste 0 -- -- 98
2019-11-13 01:00:00 8.5 25 Sudoeste 40 Sudoeste 0 -- -- 98
2019-11-13 00:00:00 8.4 24 Sudoeste 42 Sudoeste 0 -- -- 99
2019-11-12 23:00:00 8.3 21 Sudoeste 40 Sudoeste 0 -- -- 99
2019-11-12 22:00:00 8 22 Sudoeste 32 Sudoeste 0 -- -- 98
2019-11-12 21:00:00 7.8 14 Sudoeste 30 Sudoeste 0 -- -- 96
2019-11-12 20:00:00 8.2 19 Sudoeste 32 Sudoeste 0 -- -- 91
2019-11-12 19:00:00 7.5 18 Sudoeste 36 Sudoeste 0 -- -- 93
2019-11-12 18:00:00 7 19 Sudoeste 31 Sudoeste 0 -- -- 95
2019-11-12 17:00:00 7.8 14 Sudoeste 25 Sudoeste 0 -- -- 87
2019-11-12 16:00:00 7.9 16 Sudoeste 24 Sudoeste 0 -- -- 82
2019-11-12 15:00:00 8.7 14 Oeste 23 Oeste 0 -- -- 78
2019-11-12 14:00:00 8.4 13 Noroeste 28 Oeste 0 -- -- 77
2019-11-12 13:00:00 6.9 11 Oeste 21 Oeste 0 -- -- 82
2019-11-12 12:00:00 5.8 13 Oeste 20 Oeste 0 -- -- 87
2019-11-12 11:00:00 4.5 6 Oeste 15 Oeste 0 -- -- 90
2019-11-12 10:00:00 3.5 6 Sudoeste 14 Oeste 0 -- -- 97
2019-11-12 09:00:00 1 8 Sur 11 Sur 0 -- -- 98
2019-11-12 08:00:00 0.7 6 Sudoeste 14 Sur 0 -- -- 98
2019-11-12 07:00:00 0.4 8 Sur 13 Sur 0 -- -- 98
2019-11-12 06:00:00 0.4 10 Sur 13 Sur 0 -- -- 98
2019-11-12 05:00:00 0.3 3 Sur 13 Sur 0 -- -- 97
2019-11-12 04:00:00 0.6 8 Sur 13 Sur 0 -- -- 97
2019-11-12 03:00:00 0.8 6 Sudeste 10 Sudeste 0 -- -- 96
2019-11-12 02:00:00 1.2 5 Este 8 Este 0 -- -- 96
2019-11-12 01:00:00 1.5 3 Este 12 Nordeste 0 -- -- 93
2019-11-12 00:00:00 2.7 6 Este 12 Sudeste 0 -- -- 98